Time;durP1;ratioP1;P1;durP2;ratioP2;P2;SDS_P1;SDS_P2;PMS_P1;PMS_P2;Temp;Humidity;BMP_temperature;BMP_pressure;BME280_temperature;BME280_humidity;BME280_pressure;Samples;Min_cycle;Max_cycle;Signal;HPM_P1;HPM_P2
2022/06/03 00:02:04;;;;;;;9.97;7.27;;;;;;;23.41;65.50;99541.19;5050548;28;20196;-62
2022/06/03 00:04:48;;;;;;;8.83;7.20;;;;;;;23.39;65.44;99538.63;5050217;28;20866;-62
2022/06/03 00:07:29;;;;;;;7.97;7.00;;;;;;;23.27;65.49;99523.28;5050658;28;20496;-62
2022/06/03 00:10:15;;;;;;;7.83;6.97;;;;;;;23.33;65.06;99533.56;5050580;28;20192;-62
2022/06/03 00:12:53;;;;;;;8.10;7.20;;;;;;;23.32;65.67;99541.50;5050468;28;20192;-62
2022/06/03 00:15:32;;;;;;;8.37;7.50;;;;;;;23.32;64.88;99531.00;5050121;28;20655;-62
2022/06/03 00:18:27;;;;;;;7.13;6.43;;;;;;;23.30;64.58;99535.44;5050426;28;20199;-62
2022/06/03 00:21:01;;;;;;;7.73;6.37;;;;;;;23.37;64.57;99531.69;5047272;28;20192;-62
2022/06/03 00:23:55;;;;;;;8.67;6.43;;;;;;;23.36;64.01;99528.22;5050106;28;20251;-63
2022/06/03 00:26:46;;;;;;;8.47;6.00;;;;;;;23.40;63.03;99526.38;5050591;28;20189;-62
2022/06/03 00:29:32;;;;;;;8.70;6.27;;;;;;;23.40;62.67;99523.75;5050219;28;20196;-63
2022/06/03 00:32:20;;;;;;;6.67;5.63;;;;;;;23.37;62.85;99521.22;5050099;28;20896;-62
2022/06/03 00:35:22;;;;;;;9.03;6.23;;;;;;;23.40;62.97;99524.59;5050278;28;20200;-62
2022/06/03 00:37:55;;;;;;;8.90;6.80;;;;;;;23.41;62.90;99523.69;5045705;28;20253;-62
2022/06/03 00:40:38;;;;;;;11.57;6.50;;;;;;;23.38;63.07;99517.69;5050176;28;20227;-62
2022/06/03 00:43:18;;;;;;;8.47;6.80;;;;;;;23.38;63.23;99517.69;5050047;28;20196;-62
2022/06/03 00:46:20;;;;;;;9.33;6.53;;;;;;;23.31;63.31;99516.19;5050011;28;20192;-62
2022/06/03 00:49:03;;;;;;;11.30;7.33;;;;;;;23.28;63.18;99511.91;5049362;28;20518;-62
2022/06/03 00:52:17;;;;;;;6.93;6.23;;;;;;;23.38;62.75;99520.31;5050125;28;20199;-62
2022/06/03 00:55:08;;;;;;;8.63;6.27;;;;;;;23.32;63.49;99515.28;5039956;28;20200;-62
2022/06/03 00:58:13;;;;;;;8.70;6.60;;;;;;;23.34;63.51;99518.69;5050055;28;20193;-62
2022/06/03 01:00:55;;;;;;;7.47;6.07;;;;;;;23.31;62.91;99516.19;5050065;28;20207;-62
2022/06/03 01:03:36;;;;;;;9.13;6.03;;;;;;;23.30;63.07;99515.31;5049622;28;20307;-62
2022/06/03 01:06:24;;;;;;;9.33;6.13;;;;;;;23.23;62.79;99519.06;5049686;28;20737;-62
2022/06/03 01:09:10;;;;;;;6.63;5.97;;;;;;;23.21;63.16;99522.66;5049827;28;20192;-62
2022/06/03 01:12:05;;;;;;;7.80;5.27;;;;;;;23.19;63.56;99522.69;5049927;28;20200;-62
2022/06/03 01:14:49;;;;;;;7.27;6.27;;;;;;;23.21;63.32;99520.03;5046958;28;20274;-62
2022/06/03 01:17:29;;;;;;;8.30;6.47;;;;;;;23.18;63.20;99517.50;5049655;28;20192;-62
2022/06/03 01:20:17;;;;;;;6.57;5.97;;;;;;;23.19;63.30;99508.72;5050010;28;20208;-62
2022/06/03 01:23:13;;;;;;;8.07;5.97;;;;;;;23.21;63.43;99509.56;5049577;28;20337;-62
2022/06/03 01:26:23;;;;;;;12.10;6.33;;;;;;;23.23;63.35;99516.44;5049373;28;20192;-62
2022/06/03 01:29:29;;;;;;;8.30;5.83;;;;;;;23.23;63.46;99513.81;5046197;28;20645;-62
2022/06/03 01:32:29;;;;;;;7.40;5.93;;;;;;;23.12;63.69;99518.59;5049345;28;20290;-63
2022/06/03 01:35:27;;;;;;;6.27;5.63;;;;;;;23.05;64.34;99514.44;5049379;28;20192;-63
2022/06/03 01:37:56;;;;;;;10.20;6.03;;;;;;;22.89;64.53;99502.75;5049422;28;20189;-63
2022/06/03 01:40:38;;;;;;;6.50;5.90;;;;;;;22.87;65.15;99507.22;5049251;28;20220;-62
2022/06/03 01:43:32;;;;;;;7.43;6.27;;;;;;;22.83;65.35;99501.22;5049398;28;20732;-62
2022/06/03 01:46:22;;;;;;;7.13;5.77;;;;;;;22.82;65.61;99494.28;5049234;28;20575;-63
2022/06/03 01:49:25;;;;;;;8.10;6.20;;;;;;;22.86;65.68;99495.88;5050230;28;20442;-62
2022/06/03 01:52:32;;;;;;;7.10;6.17;;;;;;;22.85;65.51;99507.25;5052934;28;20442;-62
2022/06/03 01:55:36;;;;;;;10.90;6.13;;;;;;;22.76;65.57;99509.31;5053049;28;20191;-62
2022/06/03 01:58:52;;;;;;;6.87;6.17;;;;;;;22.73;65.59;99502.44;5052796;28;20582;-62
2022/06/03 02:01:45;;;;;;;8.13;6.07;;;;;;;22.61;66.24;99504.53;5030707;28;20209;-62
2022/06/03 02:04:36;;;;;;;8.53;5.97;;;;;;;22.56;66.12;99509.94;5052945;28;20220;-62
2022/06/03 02:10:43;;;;;;;7.83;5.63;;;;;;;22.51;66.66;99501.38;5087649;27;20540;-63
2022/06/03 02:13:41;;;;;;;7.33;6.50;;;;;;;22.46;66.65;99505.91;5064806;28;20649;-63
2022/06/03 02:16:38;;;;;;;9.73;6.23;;;;;;;22.51;66.59;99511.84;5086408;28;20467;-63
2022/06/03 02:19:44;;;;;;;8.67;6.30;;;;;;;22.60;65.75;99511.56;5043481;28;20277;-62
2022/06/03 02:23:02;;;;;;;7.83;5.80;;;;;;;22.55;65.79;99508.22;5078824;28;20225;-62
2022/06/03 02:25:51;;;;;;;9.83;5.83;;;;;;;22.55;65.88;99510.81;5087606;28;20286;-62
2022/06/03 02:30:24;;;;;;;6.90;5.37;;;;;;;22.55;65.65;99517.84;5087055;28;20202;-63
2022/06/03 02:31:55;;;;;;;11.18;6.80;;;;;;;22.56;66.11;99517.78;5086464;28;20436;-63
2022/06/03 02:34:49;;;;;;;8.70;5.90;;;;;;;22.57;66.34;99521.28;5087010;28;20187;-62
2022/06/03 02:37:45;;;;;;;10.33;6.77;;;;;;;22.52;66.00;99518.81;5087425;28;20199;-62
2022/06/03 02:40:40;;;;;;;10.40;6.37;;;;;;;22.54;66.03;99524.84;5087131;28;20191;-63
2022/06/03 02:43:45;;;;;;;11.10;6.40;;;;;;;22.58;66.13;99530.84;5086927;28;20253;-63
2022/06/03 02:46:39;;;;;;;9.50;6.30;;;;;;;22.52;66.38;99526.66;5065759;28;20226;-62
2022/06/03 02:49:34;;;;;;;7.83;6.53;;;;;;;22.50;66.36;99527.59;5086777;28;20230;-63
2022/06/03 02:52:33;;;;;;;8.13;6.67;;;;;;;22.53;65.81;99524.88;5086918;28;20199;-63
2022/06/03 02:55:26;;;;;;;14.30;7.60;;;;;;;22.38;66.32;99528.84;5086703;28;20577;-63
2022/06/03 02:58:20;;;;;;;7.63;6.80;;;;;;;22.37;66.53;99529.75;5086487;28;20196;-63
2022/06/03 03:01:05;;;;;;;11.40;7.00;;;;;;;22.26;66.55;99519.63;5086837;28;20195;-63
2022/06/03 03:04:08;;;;;;;8.37;7.10;;;;;;;22.47;66.13;99528.53;5086900;28;20256;-63
2022/06/03 03:07:06;;;;;;;9.33;7.93;;;;;;;22.68;65.27;99538.41;5086704;28;20195;-63
2022/06/03 03:09:48;;;;;;;8.73;7.20;;;;;;;22.85;64.91;99540.47;5086091;28;20234;-62
2022/06/03 03:12:50;;;;;;;7.67;6.77;;;;;;;22.95;63.61;99541.00;5086527;28;20201;-63
2022/06/03 03:15:35;;;;;;;14.02;7.88;;;;;;;22.95;63.62;99551.50;5085567;28;20448;-63
2022/06/03 03:18:26;;;;;;;12.00;8.40;;;;;;;22.74;63.42;99496.25;5086301;28;20199;-64
2022/06/03 03:21:21;;;;;;;9.10;7.87;;;;;;;23.19;63.04;99550.66;5076219;28;20682;-63
2022/06/03 03:24:29;;;;;;;8.93;7.90;;;;;;;23.30;63.12;99559.03;5072651;28;20196;-63
2022/06/03 03:27:09;;;;;;;18.67;7.93;;;;;;;23.34;62.88;99560.66;5067461;28;20214;-63
2022/06/03 03:30:04;;;;;;;15.27;7.63;;;;;;;23.46;62.53;99566.34;5072752;28;20211;-63
2022/06/03 03:32:50;;;;;;;12.73;7.63;;;;;;;23.51;62.03;99565.34;5066011;28;20192;-63
2022/06/03 03:35:28;;;;;;;8.30;7.47;;;;;;;23.58;61.71;99565.06;5072639;28;20260;-63
2022/06/03 03:38:33;;;;;;;10.60;7.50;;;;;;;23.69;61.61;99568.16;5072489;28;20192;-64
2022/06/03 03:41:39;;;;;;;7.72;6.63;;;;;;;23.73;60.83;99563.66;5049686;28;20479;-63
2022/06/03 03:44:51;;;;;;;7.37;6.63;;;;;;;23.74;61.25;99575.84;5072342;28;20736;-64
2022/06/03 03:48:12;;;;;;;12.03;7.23;;;;;;;23.74;60.49;99574.09;5072265;28;20245;-63
2022/06/03 03:50:54;;;;;;;12.40;7.13;;;;;;;23.81;60.98;99578.22;5072285;28;20191;-64
2022/06/03 03:53:47;;;;;;;9.60;6.73;;;;;;;23.86;60.18;99585.94;5072067;28;20195;-63
2022/06/03 03:56:57;;;;;;;10.17;6.77;;;;;;;23.95;60.32;99596.94;5072231;28;20191;-63
2022/06/03 04:00:03;;;;;;;8.52;7.22;;;;;;;24.14;60.35;99601.56;5070720;28;20437;-64
2022/06/03 04:03:05;;;;;;;12.57;7.30;;;;;;;24.31;60.25;99607.88;5072127;28;20210;-63
2022/06/03 04:05:56;;;;;;;9.57;6.47;;;;;;;24.37;59.13;99609.41;5071842;28;20195;-63
2022/06/03 04:08:42;;;;;;;8.13;6.30;;;;;;;24.36;59.13;99610.34;5071449;28;20231;-64
2022/06/03 04:11:37;;;;;;;10.73;7.00;;;;;;;24.30;58.71;99610.56;5071961;28;20306;-63
2022/06/03 04:14:33;;;;;;;17.47;7.80;;;;;;;24.41;59.33;99619.78;5071593;28;20661;-64
2022/06/03 04:17:22;;;;;;;7.83;6.57;;;;;;;24.43;58.91;99620.56;5071607;28;20202;-63
2022/06/03 04:20:05;;;;;;;11.03;7.37;;;;;;;24.50;59.71;99624.66;5071927;28;20192;-63
2022/06/03 04:22:52;;;;;;;7.93;6.77;;;;;;;24.56;59.12;99626.19;5071632;28;20194;-63
2022/06/03 04:25:54;;;;;;;9.37;7.13;;;;;;;24.65;58.89;99628.47;5071328;28;20896;-64
2022/06/03 04:28:43;;;;;;;12.23;7.17;;;;;;;24.73;59.21;99628.16;5024309;28;20195;-63
2022/06/03 04:31:42;;;;;;;11.93;6.77;;;;;;;24.80;58.43;99641.06;5070894;28;20253;-64
2022/06/03 04:34:45;;;;;;;9.37;6.90;;;;;;;24.91;58.14;99644.13;5071000;28;20196;-63
2022/06/03 04:37:55;;;;;;;11.10;6.67;;;;;;;24.97;56.90;99650.91;5057725;28;20195;-63
2022/06/03 04:41:01;;;;;;;12.27;6.07;;;;;;;25.12;57.32;99658.19;5070991;28;20187;-63
2022/06/03 04:44:29;;;;;;;11.35;7.30;;;;;;;25.32;56.78;99660.88;5069986;28;20426;-63
2022/06/03 04:47:57;;;;;;;11.73;7.43;;;;;;;25.46;57.53;99662.91;4989456;28;20688;-64
2022/06/03 04:51:09;;;;;;;9.70;7.80;;;;;;;25.34;57.29;99664.28;5070655;28;20310;-64
2022/06/03 04:54:14;;;;;;;11.53;7.83;;;;;;;25.41;57.96;99668.34;5070635;28;20196;-64
2022/06/03 04:57:22;;;;;;;20.03;8.83;;;;;;;25.39;58.48;99678.09;5032316;28;20197;-63
2022/06/03 05:00:20;;;;;;;11.87;8.30;;;;;;;25.40;58.74;99671.06;5063450;28;20253;-64
2022/06/03 05:03:34;;;;;;;13.88;8.85;;;;;;;25.30;59.13;99667.09;5070453;28;20263;-63
2022/06/03 05:06:49;;;;;;;17.90;9.63;;;;;;;25.42;59.01;99670.06;5070989;28;20230;-63
2022/06/03 05:09:48;;;;;;;14.70;10.48;;;;;;;25.51;58.53;99663.63;5069227;28;20456;-64
2022/06/03 05:13:00;;;;;;;20.00;11.27;;;;;;;25.51;57.66;99674.16;5070397;28;20206;-63
2022/06/03 05:16:01;;;;;;;18.37;13.87;;;;;;;25.38;58.49;99683.44;5066478;28;20198;-63
2022/06/03 05:19:03;;;;;;;18.37;12.03;;;;;;;25.31;59.07;99677.56;5070029;28;20198;-63
2022/06/03 05:22:17;;;;;;;13.43;11.10;;;;;;;25.43;59.39;99678.84;5070020;28;20191;-62
2022/06/03 05:25:23;;;;;;;16.35;12.52;;;;;;;25.55;58.56;99673.06;5069747;28;20433;-63
2022/06/03 05:28:39;;;;;;;17.10;10.50;;;;;;;25.79;58.69;99674.69;5070141;28;20198;-64
2022/06/03 05:31:56;;;;;;;15.50;11.17;;;;;;;25.96;57.51;99674.81;5069914;28;20194;-63
2022/06/03 05:34:56;;;;;;;12.83;8.80;;;;;;;26.06;56.30;99678.75;5069973;28;20196;-63
2022/06/03 05:37:53;;;;;;;7.27;6.37;;;;;;;26.23;54.84;99681.53;5069778;28;20195;-64
2022/06/03 05:40:35;;;;;;;11.98;5.80;;;;;;;26.32;54.80;99672.34;5051436;28;20221;-62
2022/06/03 05:43:36;;;;;;;10.33;6.33;;;;;;;26.49;54.49;99671.59;5069556;28;20209;-63
2022/06/03 05:46:10;;;;;;;7.47;6.07;;;;;;;26.57;53.42;99682.63;5069466;28;20191;-63
2022/06/03 05:49:07;;;;;;;11.85;6.32;;;;;;;26.63;53.63;99669.19;5069248;28;20206;-63
2022/06/03 05:51:59;;;;;;;8.73;6.32;;;;;;;26.57;54.03;99677.38;5069531;28;20437;-64
2022/06/03 05:54:42;;;;;;;7.70;6.90;;;;;;;26.69;53.78;99682.94;5069578;28;20195;-64
2022/06/03 05:57:20;;;;;;;12.07;6.40;;;;;;;26.81;53.67;99679.75;5069569;28;20199;-64
2022/06/03 06:00:15;;;;;;;8.40;6.30;;;;;;;26.91;53.42;99678.41;5069008;28;20187;-64
2022/06/03 06:02:47;;;;;;;8.55;6.35;;;;;;;26.95;52.93;99679.09;5069328;28;20527;-63
2022/06/03 06:05:27;;;;;;;10.10;6.93;;;;;;;27.09;53.16;99681.94;5069723;28;20199;-64
2022/06/03 06:08:04;;;;;;;11.65;7.00;;;;;;;27.25;52.79;99680.25;5068872;28;20448;-63
2022/06/03 06:10:41;;;;;;;8.75;6.30;;;;;;;27.36;51.98;99675.31;5069223;28;20272;-64
2022/06/03 06:13:30;;;;;;;7.90;5.70;;;;;;;27.39;51.36;99675.16;5069048;28;20187;-63
2022/06/03 06:16:07;;;;;;;8.40;6.60;;;;;;;27.35;51.64;99678.03;5069081;28;20274;-64
2022/06/03 06:18:44;;;;;;;10.07;7.43;;;;;;;27.37;52.77;99673.53;5068645;28;20231;-63
2022/06/03 06:21:25;;;;;;;8.93;5.85;;;;;;;27.44;50.79;99675.81;5068983;28;20191;-63
2022/06/03 06:24:00;;;;;;;9.52;5.75;;;;;;;27.48;50.47;99676.53;5068396;28;20199;-64
2022/06/03 06:26:52;;;;;;;7.00;5.80;;;;;;;27.55;51.00;99655.97;5068564;28;20202;-64
2022/06/03 06:30:00;;;;;;;7.85;5.95;;;;;;;27.63;50.84;99667.00;5049407;28;20247;-62
2022/06/03 06:32:48;;;;;;;11.38;5.78;;;;;;;27.64;50.68;99664.25;5069478;28;20191;-64
2022/06/03 06:36:00;;;;;;;8.77;6.13;;;;;;;27.76;50.57;99673.34;5068680;28;20468;-64
2022/06/03 06:38:33;;;;;;;8.38;6.80;;;;;;;27.83;50.76;99675.59;5068905;28;20515;-62
2022/06/03 06:41:19;;;;;;;17.38;6.55;;;;;;;27.83;50.37;99669.44;5068983;28;20665;-62
2022/06/03 06:43:51;;;;;;;11.18;6.45;;;;;;;27.93;50.68;99673.34;5068785;28;20253;-62
2022/06/03 06:46:32;;;;;;;8.23;6.22;;;;;;;27.99;49.64;99673.88;5069318;28;20195;-62
2022/06/03 06:49:09;;;;;;;9.90;6.78;;;;;;;28.00;50.20;99675.59;5068996;28;20203;-64
2022/06/03 06:51:56;;;;;;;10.48;7.07;;;;;;;28.01;50.07;99671.16;5068055;28;20438;-62
2022/06/03 06:54:32;;;;;;;7.10;6.28;;;;;;;27.99;50.20;99667.75;5068072;28;20278;-64
2022/06/03 06:57:04;;;;;;;10.82;6.50;;;;;;;28.04;49.76;99663.97;5071970;28;20266;-64
2022/06/03 06:59:38;;;;;;;11.20;6.65;;;;;;;28.08;50.60;99649.66;5072324;28;20206;-64
2022/06/03 07:02:11;;;;;;;8.68;6.88;;;;;;;28.12;49.79;99660.06;5071912;28;20704;-62
2022/06/03 07:04:46;;;;;;;7.53;6.40;;;;;;;28.11;50.05;99646.00;5072014;28;20196;-63
2022/06/03 07:07:19;;;;;;;8.85;6.05;;;;;;;28.12;50.33;99654.78;5072388;28;20195;-63
2022/06/03 07:09:54;;;;;;;11.57;6.32;;;;;;;28.17;50.26;99652.75;5071751;28;20231;-63
2022/06/03 07:12:26;;;;;;;10.35;6.55;;;;;;;28.29;49.96;99662.66;5072472;28;20194;-62
2022/06/03 07:14:59;;;;;;;13.63;6.32;;;;;;;28.36;49.24;99664.91;5072256;28;20202;-63
2022/06/03 07:20:36;;;;;;;6.40;5.80;;;;;;;28.39;49.77;99658.59;5072249;28;20203;-64
2022/06/03 07:23:11;;;;;;;10.65;6.82;;;;;;;28.48;48.83;99672.19;5072133;28;20191;-64
2022/06/03 07:25:45;;;;;;;7.00;6.00;;;;;;;28.63;49.59;99665.22;5072041;28;20195;-56
2022/06/03 07:28:26;;;;;;;12.80;6.38;;;;;;;28.70;50.33;99663.09;5071952;28;20206;-56
2022/06/03 07:31:01;;;;;;;7.28;5.75;;;;;;;28.78;48.70;99658.25;5071800;28;20690;-56
2022/06/03 07:33:42;;;;;;;12.03;6.93;;;;;;;28.89;48.74;99664.66;5071403;28;20945;-56
2022/06/03 07:36:16;;;;;;;10.50;7.18;;;;;;;28.91;48.14;99662.75;5071934;28;20194;-56
2022/06/03 07:38:49;;;;;;;9.32;6.70;;;;;;;28.81;48.92;99664.22;5071641;28;20202;-56
2022/06/03 07:41:23;;;;;;;8.50;6.00;;;;;;;28.79;48.63;99667.91;5071485;28;20184;-57
2022/06/03 07:43:57;;;;;;;11.30;5.88;;;;;;;28.83;48.39;99664.97;5071799;28;20222;-56
2022/06/03 07:46:31;;;;;;;7.97;5.97;;;;;;;28.92;46.47;99658.31;5071499;28;20654;-62
2022/06/03 07:48:58;;;;;;;9.80;6.15;;;;;;;28.99;47.21;99665.81;5071369;28;20203;-64
2022/06/03 07:51:31;;;;;;;9.95;6.88;;;;;;;29.13;48.06;99662.41;5071352;28;20706;-64
2022/06/03 07:54:04;;;;;;;12.25;6.63;;;;;;;29.24;47.77;99668.81;5071484;28;20215;-64
2022/06/03 07:56:33;;;;;;;10.85;6.40;;;;;;;29.30;46.46;99664.97;5071500;28;20572;-64
2022/06/03 07:59:02;;;;;;;7.72;6.80;;;;;;;29.30;47.50;99664.13;5071715;28;20219;-64
2022/06/03 08:01:40;;;;;;;13.45;7.40;;;;;;;29.31;46.42;99669.31;5070627;28;20844;-64
2022/06/03 08:04:07;;;;;;;8.18;6.90;;;;;;;29.41;46.20;99662.56;5071538;28;20235;-64
2022/06/03 08:12:02;;;;;;;14.45;6.80;;;;;;;29.47;44.88;99672.81;5071215;28;20348;-63
2022/06/03 08:14:29;;;;;;;8.73;5.25;;;;;;;29.53;44.64;99666.28;5071280;28;20195;-64
2022/06/03 08:16:58;;;;;;;6.20;5.63;;;;;;;29.58;44.87;99667.72;5070871;28;20450;-64
2022/06/03 08:19:28;;;;;;;6.55;5.85;;;;;;;29.66;43.76;99672.56;5071280;28;20446;-64
2022/06/03 08:21:57;;;;;;;5.97;5.47;;;;;;;29.68;43.46;99666.22;5071066;28;20664;-64
2022/06/03 08:24:27;;;;;;;7.95;6.95;;;;;;;29.76;44.24;99660.47;5071190;28;20199;-64
2022/06/03 08:26:58;;;;;;;9.52;6.03;;;;;;;29.93;44.53;99662.16;5070954;28;20498;-64
2022/06/03 08:29:34;;;;;;;8.38;7.13;;;;;;;30.02;44.19;99661.59;5070797;28;20198;-63
2022/06/03 08:32:06;;;;;;;8.82;6.82;;;;;;;30.05;43.25;99674.66;5070626;28;20268;-64
2022/06/03 08:34:39;;;;;;;9.90;6.22;;;;;;;30.09;42.63;99666.44;5070881;28;20586;-63
2022/06/03 08:37:09;;;;;;;8.23;6.03;;;;;;;30.13;42.37;99661.81;5070482;28;20285;-63
2022/06/03 08:39:40;;;;;;;8.52;6.32;;;;;;;30.12;42.32;99670.69;5070903;28;20309;-64
2022/06/03 08:42:22;;;;;;;8.02;5.35;;;;;;;30.08;41.92;99671.84;5070762;28;20585;-64
2022/06/03 08:45:04;;;;;;;8.63;6.53;;;;;;;30.07;42.23;99660.38;5069717;28;20441;-64
2022/06/03 08:47:39;;;;;;;7.10;6.38;;;;;;;30.12;42.40;99634.44;5070934;28;20192;-62
2022/06/03 08:50:11;;;;;;;7.47;5.80;;;;;;;30.39;42.16;99661.06;5070451;28;20225;-64
2022/06/03 08:52:50;;;;;;;8.93;6.70;;;;;;;30.18;41.01;99659.72;5070243;28;20636;-63
2022/06/03 08:55:36;;;;;;;8.13;5.43;;;;;;;30.18;40.39;99655.28;5070772;28;20282;-63
2022/06/03 08:58:11;;;;;;;7.15;5.63;;;;;;;30.21;41.08;99656.88;5070686;28;20582;-62
2022/06/03 09:00:52;;;;;;;7.28;5.85;;;;;;;30.38;40.54;99656.72;5069866;28;20516;-63
2022/06/03 09:03:24;;;;;;;8.23;5.95;;;;;;;30.38;40.97;99654.06;5070398;28;20191;-63
2022/06/03 09:05:56;;;;;;;7.28;5.53;;;;;;;30.41;40.77;99647.72;5070012;28;20195;-63
2022/06/03 09:08:31;;;;;;;10.73;5.30;;;;;;;30.56;39.80;99650.25;5069361;28;20227;-62
2022/06/03 09:11:02;;;;;;;7.28;6.18;;;;;;;30.70;39.70;99657.34;5070427;28;20272;-64
2022/06/03 09:13:40;;;;;;;6.15;5.50;;;;;;;30.75;39.50;99649.94;5070179;28;20187;-64
2022/06/03 09:16:11;;;;;;;9.52;5.68;;;;;;;30.75;39.15;99644.63;5069952;28;20214;-63
2022/06/03 09:18:45;;;;;;;9.30;5.63;;;;;;;30.87;39.31;99647.38;5069309;28;20187;-64
2022/06/03 09:21:14;;;;;;;8.82;5.03;;;;;;;30.80;37.54;99637.22;5069751;28;20198;-64
2022/06/03 09:23:45;;;;;;;7.65;5.53;;;;;;;30.90;38.18;99633.03;5069986;28;20654;-64
2022/06/03 09:26:23;;;;;;;9.77;5.00;;;;;;;30.79;36.91;99619.63;5069748;28;20188;-63
2022/06/03 09:28:53;;;;;;;7.28;5.07;;;;;;;30.86;36.41;99640.34;5068455;28;20426;-56
2022/06/03 09:31:21;;;;;;;8.40;5.03;;;;;;;30.98;34.40;99643.19;5070007;28;20247;-56
2022/06/03 09:33:50;;;;;;;6.28;4.78;;;;;;;31.16;35.25;99634.00;5069866;28;20611;-56
2022/06/03 09:36:20;;;;;;;7.10;5.03;;;;;;;31.25;34.48;99636.06;5069962;28;20199;-57
2022/06/03 09:38:51;;;;;;;6.55;4.80;;;;;;;31.30;34.66;99637.47;5069837;28;20188;-57
2022/06/03 09:41:21;;;;;;;5.55;4.90;;;;;;;31.35;33.60;99629.19;5069496;28;20192;-56
2022/06/03 09:43:53;;;;;;;8.03;5.40;;;;;;;31.40;34.31;99632.38;5069276;28;20438;-62
2022/06/03 09:46:22;;;;;;;9.60;5.72;;;;;;;31.50;33.47;99630.84;5069292;28;20233;-64
2022/06/03 09:48:51;;;;;;;9.98;5.40;;;;;;;31.57;34.17;99623.31;5069426;28;20252;-64
2022/06/03 09:51:25;;;;;;;8.65;4.97;;;;;;;31.54;34.10;99619.06;5068984;28;20215;-64
2022/06/03 09:53:53;;;;;;;6.97;5.03;;;;;;;31.34;33.01;99630.97;5069445;28;20195;-64
2022/06/03 09:56:26;;;;;;;5.43;4.10;;;;;;;31.26;32.45;99629.81;5069224;28;20222;-64
2022/06/03 09:58:56;;;;;;;10.38;7.68;;;;;;;31.37;32.38;99627.28;5069378;28;20661;-64
2022/06/03 10:01:23;;;;;;;8.85;4.97;;;;;;;31.51;32.27;99633.41;5069289;28;20199;-63
2022/06/03 10:03:56;;;;;;;9.48;5.93;;;;;;;31.41;32.66;99634.09;5069247;28;20286;-63
2022/06/03 10:14:36;;;;;;;8.18;5.20;;;;;;;31.80;31.52;99635.88;5069099;28;20276;-62
2022/06/03 10:17:05;;;;;;;11.75;4.80;;;;;;;31.88;31.33;99629.09;5069089;28;20574;-64
2022/06/03 10:19:33;;;;;;;5.63;4.75;;;;;;;31.93;31.26;99637.59;5068970;28;20631;-62
2022/06/03 10:22:00;;;;;;;6.43;5.13;;;;;;;31.91;30.55;99641.31;5068909;28;20197;-64
2022/06/03 10:24:32;;;;;;;8.77;4.63;;;;;;;31.91;30.86;99638.66;5069212;28;20199;-65
2022/06/03 10:27:01;;;;;;;5.63;4.93;;;;;;;31.86;30.08;99641.66;5069280;28;20202;-63
2022/06/03 10:29:29;;;;;;;6.93;5.25;;;;;;;31.89;30.28;99638.75;5069014;28;20227;-63
2022/06/03 10:32:00;;;;;;;12.52;6.45;;;;;;;32.15;31.28;99639.63;5073025;28;20662;-64
2022/06/03 10:34:33;;;;;;;6.88;5.15;;;;;;;32.35;29.92;99635.59;5072707;28;20637;-64
2022/06/03 10:37:02;;;;;;;7.75;4.95;;;;;;;32.43;30.45;99622.59;5072623;28;20191;-65
2022/06/03 10:39:30;;;;;;;8.00;5.57;;;;;;;32.66;30.59;99627.16;5073000;28;20506;-64
2022/06/03 10:41:59;;;;;;;7.25;4.97;;;;;;;32.74;31.01;99627.44;5072832;28;20192;-64
2022/06/03 10:44:28;;;;;;;6.35;4.53;;;;;;;32.87;29.78;99627.38;5072935;28;20646;-63
2022/06/03 10:46:58;;;;;;;7.40;5.20;;;;;;;32.97;30.85;99625.75;5072959;28;20195;-64
2022/06/03 10:49:27;;;;;;;4.90;4.40;;;;;;;32.95;29.57;99631.19;5072795;28;20191;-63
2022/06/03 11:02:56;;;;;;;4.68;4.07;;;;;;;32.72;26.51;99621.34;5072286;28;20195;-63
2022/06/03 11:05:26;;;;;;;6.40;3.97;;;;;;;32.56;27.25;99616.31;5072547;28;20188;-64
2022/06/03 11:08:02;;;;;;;7.60;4.25;;;;;;;32.62;27.60;99612.34;5071900;28;20191;-63
2022/06/03 11:10:33;;;;;;;7.57;4.13;;;;;;;32.76;28.44;99606.03;5072206;28;20191;-63
2022/06/03 11:13:00;;;;;;;6.15;3.75;;;;;;;32.33;26.93;99608.25;5071976;28;20188;-63
2022/06/03 11:15:32;;;;;;;4.00;3.60;;;;;;;32.15;27.11;99613.06;5072040;28;20674;-63
2022/06/03 11:18:00;;;;;;;7.68;4.20;;;;;;;32.25;26.78;99611.44;5071900;28;20202;-62
2022/06/03 11:20:37;;;;;;;6.85;4.20;;;;;;;32.37;26.18;99612.38;5072102;28;20278;-63
2022/06/03 11:23:07;;;;;;;3.58;3.28;;;;;;;32.42;26.63;99605.75;5071678;28;20191;-63
2022/06/03 11:25:39;;;;;;;5.85;3.78;;;;;;;32.62;25.23;99610.53;5072187;28;20210;-63
2022/06/03 11:28:12;;;;;;;6.50;3.70;;;;;;;32.84;24.62;99604.50;5071991;28;20269;-64
2022/06/03 11:30:46;;;;;;;5.53;3.42;;;;;;;33.04;24.06;99606.56;5072132;28;20200;-63
2022/06/03 11:33:18;;;;;;;5.85;3.35;;;;;;;32.96;24.04;99608.94;5071218;28;20286;-63
2022/06/03 11:35:50;;;;;;;5.65;5.05;;;;;;;33.05;24.88;99597.63;5072126;28;20203;-64
2022/06/03 11:38:24;;;;;;;6.20;4.03;;;;;;;33.08;25.18;99597.38;5071812;28;20445;-64
2022/06/03 11:40:55;;;;;;;7.68;5.53;;;;;;;33.25;25.39;99585.47;5071778;28;20267;-63
2022/06/03 11:43:32;;;;;;;7.72;4.35;;;;;;;33.21;24.93;99584.84;5072229;28;20195;-63
2022/06/03 11:46:05;;;;;;;4.95;3.40;;;;;;;33.23;24.04;99584.75;5072206;28;20191;-62
2022/06/03 11:48:36;;;;;;;4.00;3.17;;;;;;;33.41;24.50;99578.00;5072114;28;20196;-63
2022/06/03 11:51:03;;;;;;;4.22;3.80;;;;;;;33.73;24.98;99568.41;5071967;28;20700;-64
2022/06/03 11:53:32;;;;;;;5.25;3.80;;;;;;;33.89;24.54;99567.22;5071960;28;20665;-63
2022/06/03 11:56:03;;;;;;;5.07;4.00;;;;;;;33.51;24.97;99570.19;5070941;28;20452;-63
2022/06/03 11:58:41;;;;;;;3.88;3.50;;;;;;;33.11;25.47;99570.53;5072039;28;20191;-64
2022/06/03 12:01:13;;;;;;;5.07;3.90;;;;;;;33.48;24.92;99565.06;5071877;28;20283;-64
2022/06/03 12:03:46;;;;;;;6.05;4.18;;;;;;;33.60;25.09;99562.34;5071361;28;20196;-64
2022/06/03 12:06:20;;;;;;;5.97;4.25;;;;;;;33.90;25.49;99567.09;5071400;28;20217;-63
2022/06/03 12:08:55;;;;;;;4.88;4.05;;;;;;;33.50;25.00;99587.13;5071336;28;20733;-64
2022/06/03 12:14:30;;;;;;;15.45;6.18;;;;;;;33.41;25.40;99587.81;5071165;28;20270;-63
2022/06/03 12:17:00;;;;;;;6.82;4.85;;;;;;;33.61;25.72;99593.38;5071099;28;20610;-64
2022/06/03 12:19:39;;;;;;;4.60;3.97;;;;;;;34.26;25.20;99584.69;5071149;28;20195;-64
2022/06/03 12:22:33;;;;;;;7.30;4.32;;;;;;;34.68;24.26;99580.44;5070707;28;20445;-64
2022/06/03 12:25:01;;;;;;;6.15;3.80;;;;;;;34.68;25.01;99578.63;5071146;28;20195;-64
2022/06/03 12:27:32;;;;;;;4.25;3.92;;;;;;;34.84;24.14;99589.72;5071217;28;20199;-63
2022/06/03 12:30:27;;;;;;;16.05;4.55;;;;;;;34.61;30.58;99600.59;5071282;28;20195;-63
2022/06/03 12:32:58;;;;;;;10.98;5.20;;;;;;;33.64;35.26;99594.94;5070637;28;20272;-63
2022/06/03 12:36:00;;;;;;;15.05;5.50;;;;;;;33.70;35.63;99583.81;5070928;28;20203;-62
2022/06/03 12:38:56;;;;;;;11.48;5.13;;;;;;;33.47;35.45;99582.88;5070704;28;20623;-64
2022/06/03 12:41:56;;;;;;;18.92;5.38;;;;;;;33.80;34.95;99596.31;5071296;28;20241;-64
2022/06/03 12:45:14;;;;;;;13.45;5.53;;;;;;;33.30;34.90;99591.28;5061839;28;20198;-64
2022/06/03 12:47:48;;;;;;;8.88;5.35;;;;;;;33.41;35.17;99593.13;5070671;28;20236;-63
2022/06/03 12:50:34;;;;;;;10.63;5.43;;;;;;;33.69;34.92;99601.63;5070627;28;20218;-64
2022/06/03 12:53:27;;;;;;;8.88;5.47;;;;;;;33.66;35.03;99593.84;5069574;28;20211;-64
2022/06/03 12:55:58;;;;;;;8.98;5.53;;;;;;;34.06;34.56;99585.41;5070388;28;20621;-64
2022/06/03 12:58:48;;;;;;;8.07;5.13;;;;;;;34.02;34.26;99581.28;5070268;28;20571;-64
2022/06/03 13:01:32;;;;;;;9.45;6.55;;;;;;;34.52;34.08;99559.44;5070190;28;20658;-64
2022/06/03 13:04:40;;;;;;;7.63;5.18;;;;;;;34.57;33.25;99562.63;5070141;28;20199;-65
2022/06/03 13:07:36;;;;;;;6.18;5.57;;;;;;;34.64;33.32;99562.97;5067111;28;20196;-65
2022/06/03 13:10:47;;;;;;;10.07;5.32;;;;;;;34.80;32.54;99566.94;5069717;28;20253;-65
2022/06/03 13:13:34;;;;;;;7.40;5.40;;;;;;;34.84;32.35;99567.50;5069935;28;20227;-65
2022/06/03 13:16:36;;;;;;;7.50;4.85;;;;;;;34.15;33.27;99582.88;5070334;28;20196;-63
2022/06/03 13:19:44;;;;;;;9.02;5.78;;;;;;;34.01;33.76;99585.75;5069826;28;20726;-65
2022/06/03 13:22:19;;;;;;;9.02;5.85;;;;;;;33.84;34.86;99594.25;5069722;28;20487;-64
2022/06/03 13:25:22;;;;;;;7.63;6.07;;;;;;;33.59;35.55;99597.97;5070083;28;20203;-64
2022/06/03 13:28:07;;;;;;;7.25;5.10;;;;;;;33.40;35.24;99600.31;5068418;28;20249;-65